Time;durP1;ratioP1;P1;durP2;ratioP2;P2;SDS_P1;SDS_P2;PMS_P1;PMS_P2;Temp;Humidity;BMP_temperature;BMP_pressure;BME280_temperature;BME280_humidity;BME280_pressure;Samples;Min_cycle;Max_cycle;Signal;HPM_P1;HPM_P2
2021/06/20 00:01:07;;;;;;;72.72;35.20;;;16.20;99.80;;;;;;5062086;28;20472;-88
2021/06/20 00:03:33;;;;;;;70.70;34.90;;;16.20;99.80;;;;;;5032615;28;20045;-87
2021/06/20 00:06:05;;;;;;;71.88;35.53;;;16.20;99.90;;;;;;5029040;28;20040;-87
2021/06/20 00:08:31;;;;;;;84.80;38.55;;;16.20;99.90;;;;;;5065932;28;20041;-85
2021/06/20 00:10:56;;;;;;;82.43;37.05;;;16.20;99.90;;;;;;5022513;28;20129;-87
2021/06/20 00:13:22;;;;;;;79.68;37.95;;;16.20;99.90;;;;;;5042633;28;20086;-85
2021/06/20 00:15:50;;;;;;;76.05;36.20;;;16.20;99.90;;;;;;5042017;28;20434;-85
2021/06/20 00:18:16;;;;;;;78.25;36.90;;;16.20;99.90;;;;;;5024724;28;20068;-86
2021/06/20 00:20:47;;;;;;;79.50;36.70;;;16.30;99.90;;;;;;5060486;28;20110;-85
2021/06/20 00:23:13;;;;;;;80.15;37.22;;;16.30;99.90;;;;;;5057910;28;20029;-84
2021/06/20 00:25:39;;;;;;;69.93;36.47;;;16.30;99.90;;;;;;5033151;28;20048;-85
2021/06/20 00:28:06;;;;;;;80.80;38.25;;;16.30;99.90;;;;;;5060436;28;20467;-84
2021/06/20 00:30:35;;;;;;;77.75;35.97;;;16.30;99.90;;;;;;5052697;28;20467;-85
2021/06/20 00:33:02;;;;;;;67.30;35.88;;;16.30;99.90;;;;;;5073000;28;20388;-85
2021/06/20 00:35:27;;;;;;;67.63;33.95;;;16.30;99.90;;;;;;5036196;28;20131;-85
2021/06/20 00:37:55;;;;;;;69.35;36.25;;;16.30;99.90;;;;;;5043937;28;20045;-85
2021/06/20 00:40:22;;;;;;;106.13;39.55;;;16.30;99.90;;;;;;5045470;28;20495;-85
2021/06/20 00:42:48;;;;;;;76.57;37.67;;;16.40;99.90;;;;;;5041545;28;20060;-86
2021/06/20 00:45:17;;;;;;;75.15;36.03;;;16.40;99.90;;;;;;5055516;28;20048;-85
2021/06/20 00:47:44;;;;;;;78.30;37.90;;;16.40;99.90;;;;;;5040883;28;20029;-85
2021/06/20 00:50:14;;;;;;;82.45;38.65;;;16.40;99.90;;;;;;5024905;28;20039;-85
2021/06/20 00:52:41;;;;;;;78.28;40.28;;;16.40;99.90;;;;;;5015198;28;20037;-87
2021/06/20 00:55:08;;;;;;;80.80;37.70;;;16.40;99.90;;;;;;5044921;28;20048;-90
2021/06/20 00:57:35;;;;;;;84.70;38.85;;;16.40;99.90;;;;;;5040619;28;20053;-85
2021/06/20 01:00:01;;;;;;;82.55;37.70;;;16.30;99.90;;;;;;5062978;28;20120;-87
2021/06/20 01:02:27;;;;;;;86.45;39.55;;;16.30;99.90;;;;;;5051955;28;20483;-87
2021/06/20 01:04:55;;;;;;;86.78;39.83;;;16.30;99.90;;;;;;5060154;28;20056;-90
2021/06/20 01:07:23;;;;;;;80.00;37.90;;;16.30;99.90;;;;;;5028601;28;20036;-87
2021/06/20 01:09:50;;;;;;;74.07;36.67;;;16.20;99.90;;;;;;5052823;28;20036;-87
2021/06/20 01:12:17;;;;;;;89.43;40.38;;;16.20;99.90;;;;;;5054716;28;20029;-88
2021/06/20 01:14:44;;;;;;;78.22;39.45;;;16.20;99.90;;;;;;5012334;28;20410;-88
2021/06/20 01:17:10;;;;;;;83.30;39.30;;;16.20;99.90;;;;;;5059966;28;20052;-86
2021/06/20 01:19:37;;;;;;;74.70;35.25;;;16.20;99.90;;;;;;5046580;28;20099;-87
2021/06/20 01:22:33;;;;;;;74.55;37.10;;;16.20;99.90;;;;;;5043832;28;20041;-85
2021/06/20 01:25:06;;;;;;;75.20;36.92;;;16.20;99.90;;;;;;5028600;28;20045;-90
2021/06/20 01:27:33;;;;;;;;;;;16.20;99.90;;;;;;5070854;28;20142;-88
2021/06/20 01:30:04;;;;;;;77.90;37.10;;;16.20;99.90;;;;;;5036862;28;19939;-88
2021/06/20 01:32:31;;;;;;;79.10;38.95;;;16.10;99.90;;;;;;5073890;28;20040;-88
2021/06/20 01:34:57;;;;;;;89.63;40.42;;;16.20;99.90;;;;;;5074130;28;20896;-86
2021/06/20 01:37:23;;;;;;;82.40;39.97;;;16.20;99.90;;;;;;5044382;28;20363;-89
2021/06/20 01:39:49;;;;;;;82.78;40.63;;;16.20;99.90;;;;;;5044159;28;20029;-86
2021/06/20 01:42:16;;;;;;;92.55;42.72;;;16.10;99.90;;;;;;5022696;28;20052;-88
2021/06/20 01:44:48;;;;;;;81.13;40.40;;;16.20;99.90;;;;;;5029215;28;20194;-87
2021/06/20 01:47:14;;;;;;;83.68;41.67;;;16.20;99.90;;;;;;5041409;28;20515;-86
2021/06/20 01:49:40;;;;;;;89.35;42.17;;;16.20;99.90;;;;;;5079268;28;20028;-87
2021/06/20 01:52:06;;;;;;;93.93;42.38;;;16.20;99.90;;;;;;5068702;28;20080;-84
2021/06/20 01:54:36;;;;;;;96.78;42.92;;;16.20;99.90;;;;;;5026541;28;20743;-88
2021/06/20 01:57:04;;;;;;;104.43;46.75;;;16.30;99.90;;;;;;5071378;28;20029;-86
2021/06/20 01:59:31;;;;;;;98.40;44.40;;;16.30;99.90;;;;;;5057506;28;20037;-87
2021/06/20 02:01:56;;;;;;;105.45;45.28;;;16.30;99.90;;;;;;5038061;28;20274;-89
2021/06/20 02:04:22;;;;;;;96.70;44.22;;;16.30;99.90;;;;;;5045154;28;20085;-89
2021/06/20 02:06:48;;;;;;;105.18;47.33;;;16.30;99.90;;;;;;5025536;28;20032;-88
2021/06/20 02:09:14;;;;;;;103.97;47.47;;;16.30;99.90;;;;;;5023468;28;20042;-86
2021/06/20 02:11:40;;;;;;;97.32;46.08;;;16.30;99.90;;;;;;5056107;28;20095;-86
2021/06/20 02:14:06;;;;;;;104.25;47.88;;;16.40;99.90;;;;;;5025527;28;20032;-86
2021/06/20 02:16:32;;;;;;;97.85;47.28;;;16.40;99.90;;;;;;5024960;28;20125;-88
2021/06/20 02:18:57;;;;;;;110.88;47.33;;;16.30;99.90;;;;;;5052539;28;20517;-86
2021/06/20 02:21:24;;;;;;;107.20;47.80;;;16.40;99.90;;;;;;5055344;28;20075;-89
2021/06/20 02:23:50;;;;;;;104.95;47.63;;;16.40;99.90;;;;;;5043119;28;20032;-88
2021/06/20 02:26:15;;;;;;;112.38;49.75;;;16.40;99.90;;;;;;5043108;28;20035;-89
2021/06/20 02:28:41;;;;;;;118.40;49.45;;;16.40;99.90;;;;;;5037702;28;20450;-88
2021/06/20 02:31:07;;;;;;;109.95;49.75;;;16.40;99.90;;;;;;5023171;28;20029;-89
2021/06/20 02:33:33;;;;;;;108.22;47.58;;;16.40;99.90;;;;;;4987198;28;20045;-90
2021/06/20 02:35:59;;;;;;;111.40;49.85;;;16.50;99.90;;;;;;5018932;28;20033;-90
2021/06/20 02:38:25;;;;;;;108.32;50.42;;;16.50;99.90;;;;;;5006598;28;20500;-88
2021/06/20 02:40:51;;;;;;;108.05;48.63;;;16.50;99.90;;;;;;5056369;28;20059;-88
2021/06/20 02:43:16;;;;;;;103.72;48.20;;;16.50;99.90;;;;;;5022773;28;20097;-86
2021/06/20 02:45:42;;;;;;;119.85;52.83;;;16.50;99.90;;;;;;5006708;28;20090;-86
2021/06/20 02:48:09;;;;;;;105.28;50.20;;;16.50;99.90;;;;;;5041789;28;20025;-89
2021/06/20 02:50:34;;;;;;;103.90;50.83;;;16.50;99.90;;;;;;5022757;28;20041;-85
2021/06/20 02:53:00;;;;;;;105.47;50.80;;;16.50;99.90;;;;;;5071982;28;20029;-86
2021/06/20 02:55:26;;;;;;;110.85;51.50;;;16.50;99.90;;;;;;5050053;28;20075;-89
2021/06/20 02:57:52;;;;;;;103.55;50.65;;;16.60;99.90;;;;;;5025448;28;20037;-91
2021/06/20 03:00:19;;;;;;;115.47;51.15;;;16.60;99.90;;;;;;5037249;28;20055;-88
2021/06/20 03:02:45;;;;;;;105.65;51.63;;;16.50;99.90;;;;;;5019321;28;20025;-88
2021/06/20 03:05:11;;;;;;;109.07;50.25;;;16.60;99.90;;;;;;5044247;28;20453;-88
2021/06/20 03:07:36;;;;;;;103.70;49.67;;;16.60;99.90;;;;;;5049787;28;20045;-87
2021/06/20 03:10:03;;;;;;;114.40;52.75;;;16.60;99.90;;;;;;5070544;28;20598;-87
2021/06/20 03:12:29;;;;;;;120.90;54.15;;;16.60;99.90;;;;;;5039497;28;20064;-90
2021/06/20 03:14:55;;;;;;;114.65;51.17;;;16.60;99.90;;;;;;5050825;28;20029;-86
2021/06/20 03:17:21;;;;;;;100.18;49.80;;;16.60;99.90;;;;;;5016821;28;20128;-85
2021/06/20 03:19:48;;;;;;;115.03;51.83;;;16.60;99.90;;;;;;5034393;28;20037;-87
2021/06/20 03:22:14;;;;;;;103.88;48.97;;;16.60;99.90;;;;;;5025191;28;20032;-87
2021/06/20 03:24:47;;;;;;;122.95;53.22;;;16.60;99.90;;;;;;5022930;28;20041;-88
2021/06/20 03:27:12;;;;;;;;;;;16.60;99.90;;;;;;5041669;28;20484;-87
2021/06/20 03:29:38;;;;;;;110.88;50.17;;;16.60;99.90;;;;;;5037314;28;19925;-88
2021/06/20 03:32:06;;;;;;;112.88;51.78;;;16.60;99.90;;;;;;5008327;28;20033;-87
2021/06/20 03:34:32;;;;;;;111.88;53.70;;;16.60;99.90;;;;;;5036783;28;20121;-87
2021/06/20 03:36:59;;;;;;;108.65;50.75;;;16.70;99.90;;;;;;5049693;28;20087;-86
2021/06/20 03:39:25;;;;;;;109.90;52.58;;;16.70;99.90;;;;;;5030058;28;20128;-87
2021/06/20 03:41:51;;;;;;;114.15;53.42;;;16.70;99.90;;;;;;5039948;28;20120;-86
2021/06/20 03:44:17;;;;;;;109.97;51.75;;;16.80;99.90;;;;;;5052729;28;20413;-87
2021/06/20 03:46:43;;;;;;;105.35;51.00;;;16.70;99.90;;;;;;5033254;28;20130;-87
2021/06/20 03:49:08;;;;;;;105.68;52.10;;;16.80;99.90;;;;;;5039049;28;20037;-86
2021/06/20 03:51:34;;;;;;;104.30;51.00;;;16.80;99.90;;;;;;5008612;28;20113;-87
2021/06/20 03:54:00;;;;;;;95.72;50.78;;;16.80;99.90;;;;;;5007851;28;20393;-86
2021/06/20 03:56:26;;;;;;;104.63;51.30;;;16.80;99.90;;;;;;5054218;28;20410;-88
2021/06/20 03:58:53;;;;;;;98.82;50.22;;;16.90;99.90;;;;;;5070268;28;20470;-86
2021/06/20 04:01:19;;;;;;;90.60;44.60;;;16.90;99.90;;;;;;5051769;28;20029;-87
2021/06/20 04:03:45;;;;;;;132.50;51.60;;;16.90;99.90;;;;;;5037383;28;20475;-86
2021/06/20 04:06:11;;;;;;;106.88;48.30;;;16.90;99.90;;;;;;5040139;28;20264;-87
2021/06/20 04:08:37;;;;;;;79.20;39.90;;;16.90;99.90;;;;;;5019991;28;20580;-87
2021/06/20 04:11:02;;;;;;;138.73;46.10;;;16.90;99.90;;;;;;5007268;28;20534;-86
2021/06/20 04:13:28;;;;;;;112.35;51.50;;;16.90;99.90;;;;;;5052285;28;20037;-87
2021/06/20 04:15:54;;;;;;;117.07;52.53;;;17.00;99.90;;;;;;5007340;28;20045;-86
2021/06/20 04:18:20;;;;;;;94.38;48.08;;;17.00;99.90;;;;;;5023682;28;20049;-87
2021/06/20 04:20:46;;;;;;;109.68;52.15;;;17.10;99.90;;;;;;5017178;28;20040;-87
2021/06/20 04:23:11;;;;;;;162.77;62.03;;;17.10;99.90;;;;;;5039570;28;20033;-86
2021/06/20 04:25:37;;;;;;;117.82;57.40;;;17.20;99.90;;;;;;5059203;28;20192;-88
2021/06/20 04:28:03;;;;;;;83.05;46.03;;;17.20;99.90;;;;;;5036117;28;20052;-87
2021/06/20 04:30:29;;;;;;;99.45;48.67;;;17.20;99.90;;;;;;5037717;28;20037;-87
2021/06/20 04:32:56;;;;;;;129.55;55.42;;;17.20;99.90;;;;;;5025661;28;20058;-87
2021/06/20 04:35:22;;;;;;;102.82;48.00;;;17.30;99.90;;;;;;5029919;28;20090;-86
2021/06/20 04:37:49;;;;;;;83.13;47.97;;;17.30;99.90;;;;;;5029064;28;20032;-86
2021/06/20 04:40:23;;;;;;;97.40;51.00;;;17.30;99.90;;;;;;5045623;28;20060;-87
2021/06/20 04:43:12;;;;;;;122.07;53.90;;;17.30;99.90;;;;;;5059344;28;20488;-87
2021/06/20 04:45:38;;;;;;;128.40;54.75;;;17.30;99.90;;;;;;5074147;28;20033;-86
2021/06/20 04:48:04;;;;;;;124.75;56.38;;;17.30;99.90;;;;;;5036109;28;20318;-86
2021/06/20 04:50:30;;;;;;;128.55;55.47;;;17.30;99.90;;;;;;5071294;28;20037;-86
2021/06/20 04:52:56;;;;;;;142.82;59.35;;;17.40;99.90;;;;;;5042645;28;20036;-87
2021/06/20 04:55:22;;;;;;;120.45;56.17;;;17.40;99.90;;;;;;5025620;28;20037;-88
2021/06/20 04:57:48;;;;;;;124.43;56.60;;;17.50;99.90;;;;;;5010247;28;20359;-90
2021/06/20 05:00:14;;;;;;;137.55;60.50;;;17.50;99.90;;;;;;5069899;28;20032;-87
2021/06/20 05:02:41;;;;;;;139.38;63.85;;;17.50;99.90;;;;;;5059629;28;20135;-88
2021/06/20 05:05:07;;;;;;;158.35;64.80;;;17.60;99.90;;;;;;5063456;28;20064;-88
2021/06/20 05:07:34;;;;;;;141.30;63.90;;;17.60;99.90;;;;;;5062176;28;20323;-88
2021/06/20 05:10:09;;;;;;;130.75;61.10;;;17.60;99.90;;;;;;5075501;28;20475;-87
2021/06/20 05:12:38;;;;;;;129.98;62.45;;;17.70;99.90;;;;;;5047517;28;20032;-88
2021/06/20 05:15:06;;;;;;;126.40;60.92;;;17.70;99.90;;;;;;5017554;28;20491;-87
2021/06/20 05:17:39;;;;;;;134.45;60.65;;;17.80;99.90;;;;;;5011125;28;20471;-88
2021/06/20 05:20:08;;;;;;;128.55;62.88;;;17.90;99.90;;;;;;5058942;28;20043;-88
2021/06/20 05:22:34;;;;;;;118.82;59.10;;;17.90;99.90;;;;;;5026980;28;20496;-88
2021/06/20 05:25:00;;;;;;;134.52;62.20;;;18.00;99.90;;;;;;5026466;28;20084;-88
2021/06/20 05:27:28;;;;;;;139.60;64.07;;;18.00;99.90;;;;;;5053945;28;20076;-88
2021/06/20 05:29:54;;;;;;;127.95;60.65;;;18.10;99.90;;;;;;5044714;28;20404;-88
2021/06/20 05:32:20;;;;;;;111.20;57.75;;;18.10;99.90;;;;;;5029198;28;20030;-88
2021/06/20 05:34:46;;;;;;;118.82;58.97;;;18.20;99.90;;;;;;5030723;28;20056;-89
2021/06/20 05:37:11;;;;;;;121.38;60.63;;;18.20;99.90;;;;;;5042901;28;20458;-87
2021/06/20 05:39:37;;;;;;;99.25;55.28;;;18.30;99.90;;;;;;5062649;28;20040;-87
2021/06/20 05:42:03;;;;;;;109.30;57.97;;;18.30;99.90;;;;;;5068473;28;20040;-88
2021/06/20 05:44:29;;;;;;;93.15;54.97;;;18.40;99.90;;;;;;5060481;28;20024;-88
2021/06/20 05:46:55;;;;;;;85.05;52.88;;;18.50;99.90;;;;;;5058823;28;20040;-87
2021/06/20 05:49:21;;;;;;;84.93;51.63;;;18.60;99.90;;;;;;5015513;28;20036;-91
2021/06/20 05:51:47;;;;;;;80.28;48.15;;;18.70;99.90;;;;;;5056909;28;20132;-89
2021/06/20 05:54:13;;;;;;;69.15;44.47;;;18.90;99.90;;;;;;5041151;28;20701;-87
2021/06/20 05:56:38;;;;;;;70.45;43.50;;;19.00;99.90;;;;;;5011780;28;20040;-89
2021/06/20 05:59:05;;;;;;;61.78;37.47;;;19.00;99.90;;;;;;5047204;28;20670;-88
2021/06/20 06:01:31;;;;;;;46.83;33.72;;;19.10;99.90;;;;;;5059015;28;20386;-89
2021/06/20 06:03:57;;;;;;;37.35;27.02;;;19.20;99.90;;;;;;5046845;28;20135;-87
2021/06/20 06:06:23;;;;;;;32.97;23.48;;;19.20;99.90;;;;;;5059533;28;20038;-90
2021/06/20 06:08:49;;;;;;;36.78;25.77;;;19.20;99.90;;;;;;5039573;28;20446;-88
2021/06/20 06:11:18;;;;;;;32.03;22.70;;;19.20;99.90;;;;;;5025647;28;20541;-88
2021/06/20 06:13:43;;;;;;;37.28;23.98;;;19.20;99.90;;;;;;5041812;28;20041;-89
2021/06/20 06:16:09;;;;;;;31.73;23.58;;;19.20;99.90;;;;;;5059866;28;20522;-88
2021/06/20 06:18:35;;;;;;;30.33;22.30;;;19.20;99.90;;;;;;5025581;28;20036;-87
2021/06/20 06:21:01;;;;;;;29.77;22.20;;;19.20;99.90;;;;;;5032525;28;20527;-89
2021/06/20 06:23:27;;;;;;;35.28;24.80;;;19.20;99.90;;;;;;5051602;28;20048;-88
2021/06/20 06:25:53;;;;;;;41.08;25.45;;;19.20;99.90;;;;;;5025920;28;20047;-87
2021/06/20 06:28:19;;;;;;;36.92;26.10;;;19.20;99.90;;;;;;5055655;28;20063;-87
2021/06/20 06:30:45;;;;;;;36.75;26.10;;;19.20;99.90;;;;;;5022582;28;22263;-91
2021/06/20 06:33:11;;;;;;;32.03;24.20;;;19.20;99.90;;;;;;5042417;28;20056;-88
2021/06/20 06:35:37;;;;;;;35.78;27.10;;;19.20;99.80;;;;;;5056723;28;20415;-86
2021/06/20 06:38:02;;;;;;;32.78;22.70;;;19.20;99.80;;;;;;5055098;28;20158;-87
2021/06/20 06:40:29;;;;;;;30.92;23.52;;;19.20;99.60;;;;;;5046035;28;20037;-89
2021/06/20 06:42:55;;;;;;;30.30;22.95;;;19.20;99.40;;;;;;5003921;28;20167;-88
2021/06/20 06:45:21;;;;;;;33.20;23.67;;;19.20;99.40;;;;;;5049944;28;20385;-86
2021/06/20 06:47:47;;;;;;;33.55;23.33;;;19.20;99.50;;;;;;5057740;28;20040;-89
2021/06/20 06:50:17;;;;;;;25.25;20.20;;;19.20;99.60;;;;;;5046061;28;20747;-91
2021/06/20 06:52:43;;;;;;;25.35;19.75;;;19.30;99.40;;;;;;5028724;28;20034;-88
2021/06/20 06:55:10;;;;;;;20.80;16.52;;;19.30;99.20;;;;;;5051750;28;20083;-90
2021/06/20 06:57:39;;;;;;;22.38;17.15;;;19.30;99.10;;;;;;5034985;28;20144;-89
2021/06/20 07:00:06;;;;;;;19.17;15.85;;;19.30;98.90;;;;;;5079145;28;20115;-88
2021/06/20 07:02:36;;;;;;;20.10;16.27;;;19.30;98.60;;;;;;5043124;28;20025;-89
2021/06/20 07:05:05;;;;;;;19.63;16.35;;;19.30;98.70;;;;;;5037655;28;20048;-86
2021/06/20 07:07:31;;;;;;;22.52;16.98;;;19.30;98.30;;;;;;5015166;28;20482;-87
2021/06/20 07:10:00;;;;;;;17.73;14.80;;;19.40;98.40;;;;;;5050024;28;20112;-87
2021/06/20 07:12:30;;;;;;;20.80;15.55;;;19.40;98.60;;;;;;5032787;28;20059;-86
2021/06/20 07:15:05;;;;;;;18.38;14.63;;;19.40;98.20;;;;;;5041499;28;20176;-86
2021/06/20 07:17:35;;;;;;;16.75;13.18;;;19.50;98.20;;;;;;5083955;28;20078;-87
2021/06/20 07:20:02;;;;;;;13.18;11.00;;;19.60;97.90;;;;;;5042792;28;20076;-87
2021/06/20 07:22:29;;;;;;;12.57;10.18;;;19.70;97.50;;;;;;5037362;28;20091;-87
2021/06/20 07:24:54;;;;;;;12.15;9.98;;;19.70;97.00;;;;;;5051966;28;20537;-85
2021/06/20 07:27:21;;;;;;;14.80;11.15;;;19.60;96.70;;;;;;5020826;28;20064;-85
2021/06/20 07:29:48;;;;;;;13.20;10.18;;;19.60;96.80;;;;;;5013315;28;20143;-87
2021/06/20 07:32:19;;;;;;;14.05;10.02;;;19.50;96.80;;;;;;5018194;28;20128;-88
2021/06/20 07:34:44;;;;;;;16.92;11.52;;;19.50;96.90;;;;;;5056516;28;20120;-87
2021/06/20 07:37:10;;;;;;;16.10;12.50;;;19.50;97.00;;;;;;5026872;28;20036;-86
2021/06/20 07:39:39;;;;;;;14.50;12.77;;;19.50;97.00;;;;;;5011566;28;20044;-86
2021/06/20 07:42:08;;;;;;;17.80;13.10;;;19.50;97.10;;;;;;5029602;28;20098;-88
2021/06/20 07:44:34;;;;;;;17.13;12.70;;;19.60;97.10;;;;;;5024438;28;20033;-89
2021/06/20 07:47:02;;;;;;;13.32;11.38;;;19.70;97.30;;;;;;5020096;28;20044;-83
2021/06/20 07:49:31;;;;;;;12.93;10.70;;;19.70;96.90;;;;;;5050417;28;20042;-87
2021/06/20 07:51:56;;;;;;;10.40;8.98;;;19.80;96.50;;;;;;5003046;28;20044;-84
2021/06/20 07:54:22;;;;;;;10.43;9.18;;;19.80;96.20;;;;;;5000699;28;20041;-85
2021/06/20 07:56:48;;;;;;;11.77;9.52;;;19.90;96.20;;;;;;5017136;28;20444;-86
2021/06/20 07:59:14;;;;;;;13.82;9.07;;;19.90;96.10;;;;;;5037928;28;20103;-85
2021/06/20 08:01:40;;;;;;;11.38;8.95;;;20.00;96.30;;;;;;5008011;28;20029;-88
2021/06/20 08:04:06;;;;;;;12.38;8.48;;;20.10;96.30;;;;;;5027576;28;20036;-86
2021/06/20 08:06:32;;;;;;;12.82;9.63;;;20.20;96.00;;;;;;5023157;28;20103;-87
2021/06/20 08:08:58;;;;;;;11.57;8.50;;;20.30;95.60;;;;;;5011500;28;20037;-87
2021/06/20 08:11:29;;;;;;;11.98;8.15;;;20.30;95.50;;;;;;5036103;28;20055;-86
2021/06/20 08:13:59;;;;;;;8.10;6.93;;;20.20;95.30;;;;;;5030576;28;20048;-85
2021/06/20 08:16:26;;;;;;;10.77;6.47;;;20.20;95.20;;;;;;5048783;28;20045;-86
2021/06/20 08:18:52;;;;;;;7.93;6.70;;;20.10;95.10;;;;;;5016282;28;20040;-83
2021/06/20 08:21:18;;;;;;;7.78;6.60;;;20.00;95.30;;;;;;5031120;28;20067;-86
2021/06/20 08:23:44;;;;;;;8.02;6.07;;;20.00;95.30;;;;;;5052681;28;20095;-84
2021/06/20 08:26:10;;;;;;;9.25;5.97;;;20.00;95.10;;;;;;5040553;28;20038;-87
2021/06/20 08:28:36;;;;;;;8.48;5.57;;;19.90;94.90;;;;;;5064547;28;20056;-85
2021/06/20 08:31:02;;;;;;;8.07;5.70;;;19.90;95.00;;;;;;5021167;28;20068;-84
2021/06/20 08:33:35;;;;;;;5.85;5.18;;;19.80;95.20;;;;;;5036192;28;20535;-88
2021/06/20 08:36:01;;;;;;;6.45;5.05;;;19.70;95.10;;;;;;5036097;28;20037;-86
2021/06/20 08:38:27;;;;;;;5.63;4.55;;;19.70;95.20;;;;;;5051653;28;20029;-82
2021/06/20 08:40:56;;;;;;;5.65;4.15;;;19.70;95.20;;;;;;5042707;28;20045;-85
2021/06/20 08:43:23;;;;;;;6.45;4.57;;;19.70;95.20;;;;;;5048633;28;20029;-84
2021/06/20 08:45:53;;;;;;;5.07;3.88;;;19.80;94.90;;;;;;5028343;28;20085;-85
2021/06/20 08:48:20;;;;;;;4.78;3.55;;;19.80;94.70;;;;;;5029487;28;20037;-84
2021/06/20 08:50:51;;;;;;;4.30;3.65;;;19.80;94.80;;;;;;5043060;28;20059;-89
2021/06/20 08:53:20;;;;;;;8.48;4.25;;;19.80;95.00;;;;;;5044180;28;20733;-85
2021/06/20 08:55:46;;;;;;;5.18;4.20;;;19.90;95.00;;;;;;5063618;28;20131;-84
2021/06/20 08:58:31;;;;;;;5.25;3.97;;;19.90;94.70;;;;;;5045083;28;20039;-84
2021/06/20 09:00:59;;;;;;;4.25;3.67;;;19.90;94.60;;;;;;5046797;28;20140;-87
2021/06/20 09:03:37;;;;;;;6.35;3.72;;;19.90;94.60;;;;;;5058883;28;20036;-85
2021/06/20 09:06:09;;;;;;;4.32;3.30;;;19.90;94.50;;;;;;5056927;28;20061;-83
2021/06/20 09:08:39;;;;;;;3.83;3.40;;;19.90;94.50;;;;;;5041167;28;20037;-86
2021/06/20 09:11:05;;;;;;;5.63;3.45;;;19.90;94.50;;;;;;5046239;28;20036;-84
2021/06/20 09:13:34;;;;;;;3.72;3.38;;;19.90;94.40;;;;;;5041942;28;20033;-87
2021/06/20 09:16:03;;;;;;;4.30;3.78;;;19.90;94.30;;;;;;5028799;28;20044;-88
2021/06/20 09:18:29;;;;;;;5.30;4.00;;;19.90;94.30;;;;;;5063821;28;20103;-87
2021/06/20 09:20:55;;;;;;;4.30;3.67;;;19.90;94.30;;;;;;5063909;28;20515;-85
2021/06/20 09:23:21;;;;;;;8.27;3.58;;;19.90;94.40;;;;;;5011259;28;20042;-86
2021/06/20 09:25:56;;;;;;;6.95;3.85;;;19.90;94.30;;;;;;5074813;28;20025;-85
2021/06/20 09:28:30;;;;;;;4.30;3.30;;;19.90;94.30;;;;;;5041870;28;20121;-85
2021/06/20 09:30:57;;;;;;;3.00;2.80;;;19.80;94.30;;;;;;5076450;28;20083;-87
2021/06/20 09:33:30;;;;;;;4.10;3.10;;;19.80;94.60;;;;;;5030704;28;20036;-89
2021/06/20 09:35:59;;;;;;;5.55;3.78;;;19.90;94.50;;;;;;5079552;28;20037;-85
2021/06/20 09:38:41;;;;;;;5.25;3.80;;;19.90;94.70;;;;;;5071085;28;20033;-87
2021/06/20 09:41:17;;;;;;;7.20;4.57;;;19.90;94.80;;;;;;5079752;28;20040;-90
2021/06/20 09:43:54;;;;;;;6.00;4.00;;;20.00;94.80;;;;;;5077817;28;20032;-88
2021/06/20 09:46:20;;;;;;;5.28;4.22;;;19.90;94.50;;;;;;5022325;28;20025;-87
2021/06/20 09:48:47;;;;;;;4.97;3.15;;;19.90;94.60;;;;;;5051416;28;20041;-88
2021/06/20 09:51:17;;;;;;;3.72;2.78;;;19.90;94.60;;;;;;5052891;28;20059;-90
2021/06/20 09:53:46;;;;;;;4.00;2.70;;;19.80;94.60;;;;;;5050049;28;20041;-88
2021/06/20 09:56:23;;;;;;;6.57;2.78;;;19.80;94.60;;;;;;5082232;28;20052;-86
2021/06/20 09:59:00;;;;;;;2.92;2.58;;;19.80;94.60;;;;;;5078427;28;20530;-87
2021/06/20 10:01:28;;;;;;;4.13;3.25;;;19.80;94.60;;;;;;5073059;28;20091;-86
2021/06/20 10:04:14;;;;;;;4.55;2.90;;;19.80;94.40;;;;;;5049405;28;20036;-88
2021/06/20 10:07:29;;;;;;;3.75;2.80;;;19.80;94.50;;;;;;5031765;22;20049;-87
2021/06/20 10:09:57;;;;;;;3.92;2.50;;;19.80;94.70;;;;;;5079060;28;20052;-89
2021/06/20 10:12:24;;;;;;;3.53;2.10;;;19.80;94.80;;;;;;5058010;28;20129;-86
2021/06/20 10:14:52;;;;;;;5.32;1.90;;;19.80;94.50;;;;;;5078971;28;20052;-85
2021/06/20 10:17:32;;;;;;;3.35;2.00;;;19.90;94.50;;;;;;5060448;28;20041;-87
2021/06/20 10:20:08;;;;;;;1.73;1.50;;;19.90;94.10;;;;;;5067574;28;20040;-87
2021/06/20 10:22:46;;;;;;;2.90;1.70;;;19.90;93.90;;;;;;5046447;28;20252;-87
2021/06/20 10:37:39;;;;;;;2.65;1.42;;;20.00;93.80;;;;;;4944269;28;20133;-91
2021/06/20 10:40:23;;;;;;;3.80;1.50;;;20.00;94.00;;;;;;4872513;29;20050;-89
2021/06/20 10:42:54;;;;;;;1.27;1.05;;;20.00;94.00;;;;;;4898718;29;20062;-89
2021/06/20 10:45:49;;;;;;;2.67;1.42;;;20.00;93.80;;;;;;4956428;28;20060;-89
2021/06/20 10:48:19;;;;;;;4.20;1.27;;;20.00;93.80;;;;;;4949773;28;20559;-91
2021/06/20 10:50:51;;;;;;;2.58;1.23;;;19.90;93.90;;;;;;4954815;28;20116;-91
2021/06/20 10:53:18;;;;;;;3.85;1.40;;;19.90;93.80;;;;;;4971379;28;20488;-89
2021/06/20 10:55:49;;;;;;;4.75;1.50;;;19.90;94.00;;;;;;4982713;28;20046;-89
2021/06/20 10:58:47;;;;;;;2.17;1.23;;;19.80;94.10;;;;;;4967891;28;20057;-92
2021/06/20 11:01:16;;;;;;;5.32;1.90;;;19.80;93.90;;;;;;4932316;28;20051;-92
2021/06/20 11:03:52;;;;;;;3.15;1.25;;;19.70;94.10;;;;;;4954717;28;20038;-91
2021/06/20 11:06:24;;;;;;;2.90;1.00;;;19.70;94.00;;;;;;4969666;28;20038;-90
2021/06/20 11:08:53;;;;;;;1.88;0.90;;;19.70;93.80;;;;;;4952187;28;20055;-91
2021/06/20 11:11:25;;;;;;;3.90;1.10;;;19.80;93.80;;;;;;4953146;28;20126;-89
2021/06/20 11:13:57;;;;;;;1.67;0.60;;;19.80;93.80;;;;;;4971054;28;20047;-90
2021/06/20 11:16:27;;;;;;;2.65;1.00;;;19.80;93.60;;;;;;5016561;28;20041;-88
2021/06/20 11:19:08;;;;;;;1.40;0.90;;;19.70;93.70;;;;;;5025315;28;20560;-90
2021/06/20 11:21:44;;;;;;;3.30;0.82;;;19.70;93.70;;;;;;5039013;28;20127;-88
2021/06/20 11:24:12;;;;;;;2.55;1.13;;;19.60;93.60;;;;;;5038032;28;20053;-89
2021/06/20 11:26:38;;;;;;;3.65;1.20;;;19.60;93.90;;;;;;5064100;28;20037;-90
2021/06/20 11:29:08;;;;;;;3.20;0.90;;;19.60;94.10;;;;;;5045899;28;20083;-89
2021/06/20 11:31:46;;;;;;;3.75;0.70;;;19.50;93.90;;;;;;5045195;28;20040;-88
2021/06/20 11:34:15;;;;;;;4.88;0.80;;;19.50;93.80;;;;;;5043426;28;20045;-88
2021/06/20 11:36:41;;;;;;;2.05;0.80;;;19.50;93.50;;;;;;5060857;28;20036;-89
2021/06/20 11:39:12;;;;;;;2.88;0.60;;;19.50;93.20;;;;;;5045762;28;20051;-89
2021/06/20 11:41:49;;;;;;;3.00;0.68;;;19.50;93.30;;;;;;5081624;28;20072;-89
2021/06/20 11:44:19;;;;;;;3.38;0.70;;;19.50;93.10;;;;;;5062303;28;20045;-90
2021/06/20 11:46:47;;;;;;;1.48;0.60;;;19.60;93.30;;;;;;5044888;28;20086;-87
2021/06/20 11:49:18;;;;;;;0.52;0.52;;;19.50;93.20;;;;;;5043201;28;20037;-89
2021/06/20 11:52:03;;;;;;;2.67;0.70;;;19.60;93.30;;;;;;5041480;28;20029;-88
2021/06/20 11:54:29;;;;;;;1.73;0.60;;;19.60;93.20;;;;;;5057382;28;20520;-87
2021/06/20 11:57:02;;;;;;;0.80;0.55;;;19.50;93.30;;;;;;5044137;28;20081;-90
2021/06/20 11:59:39;;;;;;;3.05;0.60;;;19.60;93.10;;;;;;5082498;28;20084;-90
2021/06/20 12:02:09;;;;;;;1.58;0.55;;;19.60;92.80;;;;;;5083709;28;20043;-90
2021/06/20 12:04:35;;;;;;;1.60;0.52;;;19.60;92.80;;;;;;5042988;28;20258;-90
2021/06/20 12:07:09;;;;;;;3.33;0.90;;;19.60;92.90;;;;;;5041015;28;20048;-93
2021/06/20 12:09:38;;;;;;;1.23;0.57;;;19.60;92.80;;;;;;5063843;28;20041;-90
2021/06/20 12:12:09;;;;;;;1.27;0.68;;;19.70;92.70;;;;;;5036911;28;21574;-89
2021/06/20 12:14:35;;;;;;;2.88;0.80;;;19.70;92.70;;;;;;5078141;28;20467;-89
2021/06/20 12:17:02;;;;;;;1.38;0.57;;;19.70;92.60;;;;;;5043475;28;20101;-87
2021/06/20 12:19:31;;;;;;;3.20;0.57;;;19.70;92.60;;;;;;5029931;28;20045;-91
2021/06/20 12:22:06;;;;;;;0.65;0.50;;;19.70;92.70;;;;;;5064083;28;20055;-88
2021/06/20 12:25:01;;;;;;;1.50;0.60;;;19.70;92.80;;;;;;5065199;28;20038;-87
2021/06/20 12:27:37;;;;;;;3.38;0.60;;;19.80;92.90;;;;;;5038081;28;20043;-89
2021/06/20 12:30:19;;;;;;;0.98;0.60;;;19.80;92.90;;;;;;5034948;28;20047;-88
2021/06/20 12:32:50;;;;;;;0.75;0.47;;;19.90;93.70;;;;;;5045287;28;20414;-88
2021/06/20 12:35:28;;;;;;;3.63;0.40;;;20.00;93.10;;;;;;5036910;28;20067;-88
2021/06/20 12:37:57;;;;;;;2.30;0.60;;;20.20;92.60;;;;;;5053501;28;20101;-88
2021/06/20 12:40:26;;;;;;;1.02;0.60;;;20.20;92.80;;;;;;5052726;28;20033;-88
2021/06/20 12:42:55;;;;;;;3.20;0.75;;;20.40;92.90;;;;;;5048547;28;20471;-87
2021/06/20 12:45:27;;;;;;;1.63;0.60;;;20.50;92.70;;;;;;5034075;28;21263;-89
2021/06/20 12:47:55;;;;;;;1.45;0.80;;;20.70;92.40;;;;;;5034357;28;20056;-88
2021/06/20 12:50:56;;;;;;;0.73;0.57;;;20.80;92.10;;;;;;5055395;28;20192;-90
2021/06/20 12:53:31;;;;;;;2.15;0.80;;;21.00;92.00;;;;;;5035780;28;20047;-87